Chahbahar, Iran
Current Conditions -  °F | °C
As of 11:00 PM on Tuesday 21 Oct 2014 (Local Time) from OIZI Reporting Station
Clear Clear  
Wind Chill: 26°   Ceiling: Unl
Heat Index: 26°   Visibility: 6mi
Dew Point:   Wind: 0mph
Humidity: 28%   Direction: NA
Pressure: 30.03"   Gusts: NA
Location:  25.28°N, 60.62°E
Report Text: OIZI 212000Z 00000KT CAVOK 26/06 Q1017
Loading
Personal Weather Stations






























Interactive Weather Map
Tropical Storm Tracking
New forecast layout! Learn more

10-Day Weather Forecast

Advertisements
Track Severe Weather on mobile